Main page
METAR-TAF:

METAR-TAF

Airports :

Shanghai Hongqiao International Airport

Shanghai-Hongqiao, China

latitude: 31-10N, longitude: 121-26E, elevation: 7 m

Current weather observation

The report was made 33 minutes ago, at 20:00 UTC
Wind 10 kt from the Southeast
Temperature 14°C
Humidity 88%
Pressure 1020 hPa
Visibility 10 km or more
Broken clouds at a height of 1600 ft

METAR: ZSSS 152000Z 14005MPS 9999 BKN016 14/12 Q1020 NOSIG

Time: 04:33 (20:33 UTC)

Forecast

The report was made 5 hours and 23 minutes ago, at 15:10 UTC
Forecast valid from 15 at 18 UTC to 16 at 18 UTC
Wind 8 kt from the Southeast
Visibility: 5000 m
Broken clouds at a height of 2000 ft
mist

TAF: ZSSS 151510Z 1518/1618 14004MPS 5000 BR BKN020 TX20/1606Z TN12/1521Z

Weather observations and forecasts of more than 4000 airports (METAR and TAF reports).

The available stations are represented by yellow and red dots on the map.

Hover mouse over dot to see the name of the station.

Then click to see weather observations and forecasts.

To change the map : click on the green buttons with a black cross to zoom in, on the green button with a dash to zoom out, or on the green arrows for adjacent maps.


METAR-TAF: